Terminal Aerodrome Forecast
Issued by NWS

Home | Current Version | Previous Version | Text Only | Print | Product List | Glossary On
Versions: 1 2 3 4 5 6 7 8 9 10 11 12 13 14 15 16 17 18 19 20 21 22 23 24 25 26
000
FTUS43 KDLH 200423 AAA
TAFHIB
TAF AMD
KHIB 200423Z 2004/2024 28006KT P6SM BKN019
     FM200700 29005KT P6SM BKN015
     FM200800 28004KT P6SM BKN008
     FM201200 00000KT P6SM BKN010
     FM201500 00000KT P6SM BKN040=

USA.gov is the U.S. government's official web portal to all federal, state and local government web resources and services.